SLRY  Reyes  Airport

Reyes, Bolivia

Add Bookmark
ICAO SLRY
IATA REY
Type Airport
Status Operational
Latitude
14° 18' 15" S
-14.304400
Longitude
67° 21' 12" W
-67.353401
Local (DST -4) UTC (GMT -4)
Sep 3, 2015 12:25 Sep 3, 2015 04:25
Sunrise-Sunset Local UTC
Begin Civil Twilight 06:09 10:09
Sunrise 06:31 10:31
Sunset 06:25 22:25
End Civil Twilight 06:47 22:47
VFR
VFR
MVFR
MVFR
IFR
IFR
LIFR
LIFR
Unknown
Unavailable

Current Weather

METAR Observed
SLRY 022200Z 32004KT 9999 NSC 33/24 Q1010 Wed, Sep 2, 2015 @ 22:00 UTC
(6 Hours, 25 Minutes ago)
Wind Visibility Conditions
320° at 4 knots (7 kph) 10 km or more
  • No significant weather
Temperatures Readings Precipitation
Current Temp
33°C
91°F
Dewpoint
24°C
75°F
Heat Index
39°C
102°
Humidity 59%
Altimeter 29.82" Hg
Sea Level Pressure 1,010 mb
Field Elevation
280 m
919 ft
None Recorded

Additional weather within a 92.6km radius of SLRY

Map ICAO Location
SLRQ 20.7km SW (229°)
VFR
VFR
MVFR
MVFR
IFR
IFR
LIFR
LIFR
Unknown
Unavailable
-
-

CheckWX.com is intended as a tool to help pilots better visualize weather data. It is not intended as a substitute for an official weather briefing obtained from a Flight Service Station. CheckWX.com does not meet the FAA requirements for an official pre-flight weather briefing. Therefore, it's important that pilots still call and obtain an official FSS pre-flight weather briefing.

© 2007-2015 CheckWX.com
04:25:08 UTC